Time;durP1;ratioP1;P1;durP2;ratioP2;P2;SDS_P1;SDS_P2;PMS_P1;PMS_P2;Temp;Humidity;BMP_temperature;BMP_pressure;BME280_temperature;BME280_humidity;BME280_pressure;Samples;Min_cycle;Max_cycle;Signal;HPM_P1;HPM_P2
2020/07/26 00:00:14;;;;;;;4.85;4.45;;;;;;;15.13;78.35645;94861.7;;;;
2020/07/26 00:01:15;;;;;;;4.85;4.45;;;;;;;15.13;78.35645;94861.7;;;;
2020/07/26 00:02:15;;;;;;;4.85;4.45;;;;;;;15.13;78.35645;94861.7;;;;
2020/07/26 00:03:16;;;;;;;4.85;4.45;;;;;;;15.13;78.35645;94861.7;;;;
2020/07/26 00:04:16;;;;;;;4.85;4.45;;;;;;;15.13;78.35645;94861.7;;;;
2020/07/26 00:05:17;;;;;;;4.85;4.45;;;;;;;15.13;78.35645;94861.7;;;;
2020/07/26 00:06:17;;;;;;;4.85;4.45;;;;;;;15.13;78.35645;94861.7;;;;
2020/07/26 00:07:18;;;;;;;4.85;4.45;;;;;;;15.13;78.35645;94861.7;;;;
2020/07/26 00:08:18;;;;;;;4.85;4.45;;;;;;;15.13;78.35645;94861.7;;;;
2020/07/26 00:09:19;;;;;;;4.85;4.45;;;;;;;15.13;78.35645;94861.7;;;;
2020/07/26 00:10:19;;;;;;;4.85;4.45;;;;;;;15.13;78.35645;94861.7;;;;
2020/07/26 00:11:20;;;;;;;4.85;4.45;;;;;;;15.13;78.35645;94861.7;;;;
2020/07/26 00:12:20;;;;;;;4.85;4.45;;;;;;;15.13;78.35645;94861.7;;;;
2020/07/26 00:13:21;;;;;;;4.299999;3.900001;;;;;;;15.55;78.71289;94846.82;;;;
2020/07/26 00:14:21;;;;;;;4.299999;3.900001;;;;;;;15.55;78.71289;94846.82;;;;
2020/07/26 00:15:22;;;;;;;4.299999;3.900001;;;;;;;15.55;78.71289;94846.82;;;;
2020/07/26 00:16:22;;;;;;;4.299999;3.900001;;;;;;;15.55;78.71289;94846.82;;;;
2020/07/26 00:17:23;;;;;;;4.299999;3.900001;;;;;;;15.55;78.71289;94846.82;;;;
2020/07/26 00:18:23;;;;;;;4.299999;3.900001;;;;;;;15.55;78.71289;94846.82;;;;
2020/07/26 00:19:24;;;;;;;4.299999;3.900001;;;;;;;15.55;78.71289;94846.82;;;;
2020/07/26 00:20:24;;;;;;;4.299999;3.900001;;;;;;;15.55;78.71289;94846.82;;;;
2020/07/26 00:21:25;;;;;;;4.299999;3.900001;;;;;;;15.55;78.71289;94846.82;;;;
2020/07/26 00:22:25;;;;;;;4.299999;3.900001;;;;;;;15.55;78.71289;94846.82;;;;
2020/07/26 00:23:26;;;;;;;4.050001;3.45;;;;;;;15.81;78.90918;94845.78;;;;
2020/07/26 00:24:26;;;;;;;4.050001;3.45;;;;;;;15.81;78.90918;94845.78;;;;
2020/07/26 00:25:27;;;;;;;4.050001;3.45;;;;;;;15.81;78.90918;94845.78;;;;
2020/07/26 00:26:28;;;;;;;4.050001;3.45;;;;;;;15.81;78.90918;94845.78;;;;
2020/07/26 00:27:28;;;;;;;4.050001;3.45;;;;;;;15.81;78.90918;94845.78;;;;
2020/07/26 00:28:29;;;;;;;4.050001;3.45;;;;;;;15.81;78.90918;94845.78;;;;
2020/07/26 00:29:29;;;;;;;4.050001;3.45;;;;;;;15.81;78.90918;94845.78;;;;
2020/07/26 00:30:30;;;;;;;4.050001;3.45;;;;;;;15.81;78.90918;94845.78;;;;
2020/07/26 00:31:30;;;;;;;4.050001;3.45;;;;;;;15.81;78.90918;94845.78;;;;
2020/07/26 00:32:31;;;;;;;4.050001;3.45;;;;;;;15.81;78.90918;94845.78;;;;
2020/07/26 00:33:31;;;;;;;4.050001;3.45;;;;;;;15.81;78.90918;94845.78;;;;
2020/07/26 00:34:31;;;;;;;3.7;3.3;;;;;;;16.05;78.36719;94853.96;;;;
2020/07/26 00:35:32;;;;;;;3.7;3.3;;;;;;;16.05;78.36719;94853.96;;;;
2020/07/26 00:36:32;;;;;;;3.7;3.3;;;;;;;16.05;78.36719;94853.96;;;;
2020/07/26 00:37:33;;;;;;;3.7;3.3;;;;;;;16.05;78.36719;94853.96;;;;
2020/07/26 00:38:33;;;;;;;3.7;3.3;;;;;;;16.05;78.36719;94853.96;;;;
2020/07/26 00:39:34;;;;;;;3.7;3.3;;;;;;;16.05;78.36719;94853.96;;;;
2020/07/26 00:40:34;;;;;;;3.7;3.3;;;;;;;16.05;78.36719;94853.96;;;;
2020/07/26 00:41:35;;;;;;;3.7;3.3;;;;;;;16.05;78.36719;94853.96;;;;
2020/07/26 00:42:35;;;;;;;3.7;3.3;;;;;;;16.05;78.36719;94853.96;;;;
2020/07/26 00:43:36;;;;;;;3.7;3.3;;;;;;;16.05;78.36719;94853.96;;;;
2020/07/26 00:44:36;;;;;;;3.7;3.4;;;;;;;16.07;78.28223;94845.5;;;;
2020/07/26 00:45:37;;;;;;;3.7;3.4;;;;;;;16.07;78.28223;94845.5;;;;
2020/07/26 00:46:37;;;;;;;3.7;3.4;;;;;;;16.07;78.28223;94845.5;;;;
2020/07/26 00:47:38;;;;;;;3.7;3.4;;;;;;;16.07;78.28223;94845.5;;;;
2020/07/26 00:48:38;;;;;;;3.7;3.4;;;;;;;16.07;78.28223;94845.5;;;;
2020/07/26 00:49:39;;;;;;;3.7;3.4;;;;;;;16.07;78.28223;94845.5;;;;
2020/07/26 00:50:39;;;;;;;3.7;3.4;;;;;;;16.07;78.28223;94845.5;;;;
2020/07/26 00:51:40;;;;;;;3.7;3.4;;;;;;;16.07;78.28223;94845.5;;;;
2020/07/26 00:52:40;;;;;;;3.7;3.4;;;;;;;16.07;78.28223;94845.5;;;;
2020/07/26 00:53:41;;;;;;;3.7;3.4;;;;;;;16.07;78.28223;94845.5;;;;
2020/07/26 00:54:41;;;;;;;3.7;3.4;;;;;;;16.07;78.28223;94845.5;;;;
2020/07/26 00:55:42;;;;;;;4.3;3.400001;;;;;;;15.93;78.50781;94834.41;;;;
2020/07/26 00:56:49;;;;;;;4.3;3.400001;;;;;;;15.93;78.50781;94834.41;;;;
2020/07/26 00:57:50;;;;;;;4.3;3.400001;;;;;;;15.93;78.50781;94834.41;;;;
2020/07/26 00:58:50;;;;;;;4.3;3.400001;;;;;;;15.93;78.50781;94834.41;;;;
2020/07/26 00:59:51;;;;;;;4.3;3.400001;;;;;;;15.93;78.50781;94834.41;;;;
2020/07/26 01:00:51;;;;;;;4.3;3.400001;;;;;;;15.93;78.50781;94834.41;;;;
2020/07/26 01:01:52;;;;;;;4.3;3.400001;;;;;;;15.93;78.50781;94834.41;;;;
2020/07/26 01:02:52;;;;;;;4.3;3.400001;;;;;;;15.93;78.50781;94834.41;;;;
2020/07/26 01:03:53;;;;;;;4.3;3.400001;;;;;;;15.93;78.50781;94834.41;;;;
2020/07/26 01:04:53;;;;;;;4.3;3.400001;;;;;;;15.93;78.50781;94834.41;;;;
2020/07/26 01:05:54;;;;;;;4.3;3.400001;;;;;;;15.93;78.50781;94834.41;;;;
2020/07/26 01:06:54;;;;;;;4.3;3.400001;;;;;;;15.93;78.50781;94834.41;;;;
2020/07/26 01:07:55;;;;;;;4.3;3.400001;;;;;;;15.93;78.50781;94834.41;;;;
2020/07/26 01:08:55;;;;;;;4.3;3.400001;;;;;;;15.93;78.50781;94834.41;;;;
2020/07/26 01:09:56;;;;;;;4.3;3.400001;;;;;;;15.93;78.50781;94834.41;;;;
2020/07/26 01:10:57;;;;;;;4.3;3.400001;;;;;;;15.93;78.50781;94834.41;;;;
2020/07/26 01:11:57;;;;;;;4.3;3.400001;;;;;;;15.93;78.50781;94834.41;;;;
2020/07/26 01:12:57;;;;;;;4.3;3.400001;;;;;;;15.93;78.50781;94834.41;;;;
2020/07/26 01:13:58;;;;;;;4.3;3.400001;;;;;;;15.93;78.50781;94834.41;;;;
2020/07/26 01:14:58;;;;;;;4.3;3.400001;;;;;;;15.93;78.50781;94834.41;;;;
2020/07/26 01:15:59;;;;;;;4.3;3.400001;;;;;;;15.93;78.50781;94834.41;;;;
2020/07/26 01:16:59;;;;;;;3.9;3.15;;;;;;;16.04;78.59277;94821.43;;;;
2020/07/26 01:18:00;;;;;;;3.9;3.15;;;;;;;16.04;78.59277;94821.43;;;;
2020/07/26 01:19:00;;;;;;;3.9;3.15;;;;;;;16.04;78.59277;94821.43;;;;
2020/07/26 01:20:01;;;;;;;3.9;3.15;;;;;;;16.04;78.59277;94821.43;;;;
2020/07/26 01:21:01;;;;;;;3.9;3.15;;;;;;;16.04;78.59277;94821.43;;;;
2020/07/26 01:22:02;;;;;;;3.9;3.15;;;;;;;16.04;78.59277;94821.43;;;;
2020/07/26 01:23:02;;;;;;;3.9;3.15;;;;;;;16.04;78.59277;94821.43;;;;
2020/07/26 01:24:04;;;;;;;3.9;3.15;;;;;;;16.04;78.59277;94821.43;;;;
2020/07/26 01:25:04;;;;;;;3.9;3.15;;;;;;;16.04;78.59277;94821.43;;;;
2020/07/26 01:26:05;;;;;;;3.9;3.15;;;;;;;16.04;78.59277;94821.43;;;;
2020/07/26 01:27:06;;;;;;;3.9;3.15;;;;;;;16.04;78.59277;94821.43;;;;
2020/07/26 01:28:06;;;;;;;3.5;3.2;;;;;;;16.13;78.69629;94817.02;;;;
2020/07/26 01:29:07;;;;;;;3.5;3.2;;;;;;;16.13;78.69629;94817.02;;;;
2020/07/26 01:30:07;;;;;;;3.5;3.2;;;;;;;16.13;78.69629;94817.02;;;;
2020/07/26 01:31:08;;;;;;;3.5;3.2;;;;;;;16.13;78.69629;94817.02;;;;
2020/07/26 01:32:08;;;;;;;3.5;3.2;;;;;;;16.13;78.69629;94817.02;;;;
2020/07/26 01:33:09;;;;;;;3.5;3.2;;;;;;;16.13;78.69629;94817.02;;;;
2020/07/26 01:34:09;;;;;;;3.5;3.2;;;;;;;16.13;78.69629;94817.02;;;;
2020/07/26 01:35:10;;;;;;;3.5;3.2;;;;;;;16.13;78.69629;94817.02;;;;
2020/07/26 01:36:10;;;;;;;3.5;3.2;;;;;;;16.13;78.69629;94817.02;;;;
2020/07/26 01:37:11;;;;;;;3.5;3.2;;;;;;;16.13;78.69629;94817.02;;;;
2020/07/26 01:38:11;;;;;;;3.5;3.2;;;;;;;16.13;78.69629;94817.02;;;;
2020/07/26 01:39:12;;;;;;;3.5;3.2;;;;;;;16.13;78.69629;94817.02;;;;
2020/07/26 01:40:12;;;;;;;3.5;3.2;;;;;;;16.13;78.69629;94817.02;;;;
2020/07/26 01:41:13;;;;;;;3.5;3.2;;;;;;;16.13;78.69629;94817.02;;;;
2020/07/26 01:42:13;;;;;;;3.5;3.2;;;;;;;16.13;78.69629;94817.02;;;;
2020/07/26 01:43:14;;;;;;;3.5;3.2;;;;;;;16.13;78.69629;94817.02;;;;
2020/07/26 01:44:14;;;;;;;3.5;3.2;;;;;;;16.13;78.69629;94817.02;;;;
2020/07/26 01:45:15;;;;;;;3.5;3.2;;;;;;;16.13;78.69629;94817.02;;;;
2020/07/26 01:46:15;;;;;;;3.5;3.2;;;;;;;16.13;78.69629;94817.02;;;;
2020/07/26 01:47:16;;;;;;;3.5;3.2;;;;;;;16.13;78.69629;94817.02;;;;
2020/07/26 01:48:16;;;;;;;3.5;3.2;;;;;;;16.13;78.69629;94817.02;;;;
2020/07/26 01:49:17;;;;;;;3.6;3.2;;;;;;;16.27;78.24316;94803.16;;;;
2020/07/26 01:50:17;;;;;;;3.6;3.2;;;;;;;16.27;78.24316;94803.16;;;;
2020/07/26 01:51:18;;;;;;;3.6;3.2;;;;;;;16.27;78.24316;94803.16;;;;
2020/07/26 01:52:18;;;;;;;3.6;3.2;;;;;;;16.27;78.24316;94803.16;;;;
2020/07/26 01:53:19;;;;;;;3.6;3.2;;;;;;;16.27;78.24316;94803.16;;;;
2020/07/26 01:54:19;;;;;;;3.6;3.2;;;;;;;16.27;78.24316;94803.16;;;;
2020/07/26 01:55:20;;;;;;;3.6;3.2;;;;;;;16.27;78.24316;94803.16;;;;
2020/07/26 01:56:20;;;;;;;3.6;3.2;;;;;;;16.27;78.24316;94803.16;;;;
2020/07/26 01:57:21;;;;;;;3.6;3.2;;;;;;;16.27;78.24316;94803.16;;;;
2020/07/26 01:58:21;;;;;;;3.6;3.2;;;;;;;16.27;78.24316;94803.16;;;;
2020/07/26 01:59:22;;;;;;;3.6;3.2;;;;;;;16.27;78.24316;94803.16;;;;
2020/07/26 02:00:22;;;;;;;3.4;2.900001;;;;;;;16.27;78.73047;94798.13;;;;
2020/07/26 02:01:23;;;;;;;3.4;2.900001;;;;;;;16.27;78.73047;94798.13;;;;
2020/07/26 02:02:23;;;;;;;3.4;2.900001;;;;;;;16.27;78.73047;94798.13;;;;
2020/07/26 02:03:24;;;;;;;3.4;2.900001;;;;;;;16.27;78.73047;94798.13;;;;
2020/07/26 02:04:24;;;;;;;3.4;2.900001;;;;;;;16.27;78.73047;94798.13;;;;
2020/07/26 02:05:25;;;;;;;3.4;2.900001;;;;;;;16.27;78.73047;94798.13;;;;
2020/07/26 02:06:25;;;;;;;3.4;2.900001;;;;;;;16.27;78.73047;94798.13;;;;
2020/07/26 02:07:26;;;;;;;3.4;2.900001;;;;;;;16.27;78.73047;94798.13;;;;
2020/07/26 02:08:26;;;;;;;3.4;2.900001;;;;;;;16.27;78.73047;94798.13;;;;
2020/07/26 02:09:27;;;;;;;3.4;2.900001;;;;;;;16.27;78.73047;94798.13;;;;
2020/07/26 02:10:27;;;;;;;3.1;2.8;;;;;;;16.37;78.67285;94797.66;;;;
2020/07/26 02:11:28;;;;;;;3.1;2.8;;;;;;;16.37;78.67285;94797.66;;;;
2020/07/26 02:12:28;;;;;;;3.1;2.8;;;;;;;16.37;78.67285;94797.66;;;;
2020/07/26 02:13:29;;;;;;;3.1;2.8;;;;;;;16.37;78.67285;94797.66;;;;
2020/07/26 02:14:29;;;;;;;3.1;2.8;;;;;;;16.37;78.67285;94797.66;;;;
2020/07/26 02:15:30;;;;;;;3.1;2.8;;;;;;;16.37;78.67285;94797.66;;;;
2020/07/26 02:16:30;;;;;;;3.1;2.8;;;;;;;16.37;78.67285;94797.66;;;;
2020/07/26 02:17:30;;;;;;;3.1;2.8;;;;;;;16.37;78.67285;94797.66;;;;
2020/07/26 02:18:31;;;;;;;3.1;2.8;;;;;;;16.37;78.67285;94797.66;;;;
2020/07/26 02:19:31;;;;;;;3.1;2.8;;;;;;;16.37;78.67285;94797.66;;;;
2020/07/26 02:20:32;;;;;;;3.1;2.8;;;;;;;16.37;78.67285;94797.66;;;;
2020/07/26 02:21:32;;;;;;;3.15;2.85;;;;;;;16.53;78.3877;94791.41;;;;
2020/07/26 02:22:33;;;;;;;3.15;2.85;;;;;;;16.53;78.3877;94791.41;;;;
2020/07/26 02:23:33;;;;;;;3.15;2.85;;;;;;;16.53;78.3877;94791.41;;;;
2020/07/26 02:24:34;;;;;;;3.15;2.85;;;;;;;16.53;78.3877;94791.41;;;;
2020/07/26 02:25:34;;;;;;;3.15;2.85;;;;;;;16.53;78.3877;94791.41;;;;
2020/07/26 02:26:35;;;;;;;3.15;2.85;;;;;;;16.53;78.3877;94791.41;;;;
2020/07/26 02:27:35;;;;;;;3.15;2.85;;;;;;;16.53;78.3877;94791.41;;;;
2020/07/26 02:28:36;;;;;;;3.15;2.85;;;;;;;16.53;78.3877;94791.41;;;;
2020/07/26 02:29:37;;;;;;;3.15;2.85;;;;;;;16.53;78.3877;94791.41;;;;
2020/07/26 02:30:37;;;;;;;3.15;2.85;;;;;;;16.53;78.3877;94791.41;;;;
2020/07/26 02:31:37;;;;;;;3.95;3.1;;;;;;;16.58;78.3418;94786.49;;;;
2020/07/26 02:32:38;;;;;;;3.95;3.1;;;;;;;16.58;78.3418;94786.49;;;;
2020/07/26 02:33:38;;;;;;;3.95;3.1;;;;;;;16.58;78.3418;94786.49;;;;
2020/07/26 02:34:39;;;;;;;3.95;3.1;;;;;;;16.58;78.3418;94786.49;;;;
2020/07/26 02:35:39;;;;;;;3.95;3.1;;;;;;;16.58;78.3418;94786.49;;;;
2020/07/26 02:36:40;;;;;;;3.95;3.1;;;;;;;16.58;78.3418;94786.49;;;;
2020/07/26 02:37:40;;;;;;;3.95;3.1;;;;;;;16.58;78.3418;94786.49;;;;
2020/07/26 02:38:41;;;;;;;3.95;3.1;;;;;;;16.58;78.3418;94786.49;;;;
2020/07/26 02:39:41;;;;;;;3.95;3.1;;;;;;;16.58;78.3418;94786.49;;;;
2020/07/26 02:40:42;;;;;;;3.95;3.1;;;;;;;16.58;78.3418;94786.49;;;;
2020/07/26 02:41:42;;;;;;;3.95;3.1;;;;;;;16.58;78.3418;94786.49;;;;
2020/07/26 02:42:43;;;;;;;3.45;2.900001;;;;;;;16.7;78.07031;94778.74;;;;
2020/07/26 02:43:43;;;;;;;3.45;2.900001;;;;;;;16.7;78.07031;94778.74;;;;
2020/07/26 02:44:44;;;;;;;3.45;2.900001;;;;;;;16.7;78.07031;94778.74;;;;
2020/07/26 02:45:44;;;;;;;3.45;2.900001;;;;;;;16.7;78.07031;94778.74;;;;
2020/07/26 02:46:45;;;;;;;3.45;2.900001;;;;;;;16.7;78.07031;94778.74;;;;
2020/07/26 02:47:45;;;;;;;3.45;2.900001;;;;;;;16.7;78.07031;94778.74;;;;
2020/07/26 02:48:46;;;;;;;3.45;2.900001;;;;;;;16.7;78.07031;94778.74;;;;
2020/07/26 02:49:46;;;;;;;3.45;2.900001;;;;;;;16.7;78.07031;94778.74;;;;
2020/07/26 02:50:47;;;;;;;3.45;2.900001;;;;;;;16.7;78.07031;94778.74;;;;
2020/07/26 02:51:47;;;;;;;3.45;2.900001;;;;;;;16.7;78.07031;94778.74;;;;
2020/07/26 02:52:48;;;;;;;3.2;2.9;;;;;;;16.69;77.91699;94787.48;;;;
2020/07/26 02:53:48;;;;;;;3.2;2.9;;;;;;;16.69;77.91699;94787.48;;;;
2020/07/26 02:54:48;;;;;;;3.2;2.9;;;;;;;16.69;77.91699;94787.48;;;;
2020/07/26 02:55:49;;;;;;;3.2;2.9;;;;;;;16.69;77.91699;94787.48;;;;
2020/07/26 02:56:50;;;;;;;3.2;2.9;;;;;;;16.69;77.91699;94787.48;;;;
2020/07/26 02:57:50;;;;;;;3.2;2.9;;;;;;;16.69;77.91699;94787.48;;;;
2020/07/26 02:58:51;;;;;;;3.2;2.9;;;;;;;16.69;77.91699;94787.48;;;;
2020/07/26 02:59:51;;;;;;;3.2;2.9;;;;;;;16.69;77.91699;94787.48;;;;
2020/07/26 03:00:52;;;;;;;3.2;2.9;;;;;;;16.69;77.91699;94787.48;;;;
2020/07/26 03:01:52;;;;;;;3.2;2.9;;;;;;;16.69;77.91699;94787.48;;;;
2020/07/26 03:02:53;;;;;;;3.2;2.9;;;;;;;16.69;77.91699;94787.48;;;;
2020/07/26 03:03:53;;;;;;;2.7;2.5;;;;;;;16.67;77.84863;94776.59;;;;
2020/07/26 03:04:54;;;;;;;2.7;2.5;;;;;;;16.67;77.84863;94776.59;;;;
2020/07/26 03:05:54;;;;;;;2.7;2.5;;;;;;;16.67;77.84863;94776.59;;;;
2020/07/26 03:06:55;;;;;;;2.7;2.5;;;;;;;16.67;77.84863;94776.59;;;;
2020/07/26 03:07:55;;;;;;;2.7;2.5;;;;;;;16.67;77.84863;94776.59;;;;
2020/07/26 03:08:56;;;;;;;2.7;2.5;;;;;;;16.67;77.84863;94776.59;;;;
2020/07/26 03:09:56;;;;;;;2.7;2.5;;;;;;;16.67;77.84863;94776.59;;;;
2020/07/26 03:10:57;;;;;;;2.7;2.5;;;;;;;16.67;77.84863;94776.59;;;;
2020/07/26 03:11:57;;;;;;;2.7;2.5;;;;;;;16.67;77.84863;94776.59;;;;
2020/07/26 03:12:58;;;;;;;2.7;2.5;;;;;;;16.67;77.84863;94776.59;;;;
2020/07/26 03:13:58;;;;;;;4.25;3;;;;;;;16.65;77.88867;94779.61;;;;
2020/07/26 03:14:59;;;;;;;4.25;3;;;;;;;16.65;77.88867;94779.61;;;;
2020/07/26 03:15:59;;;;;;;4.25;3;;;;;;;16.65;77.88867;94779.61;;;;
2020/07/26 03:16:59;;;;;;;4.25;3;;;;;;;16.65;77.88867;94779.61;;;;
2020/07/26 03:18:00;;;;;;;4.25;3;;;;;;;16.65;77.88867;94779.61;;;;
2020/07/26 03:19:00;;;;;;;4.25;3;;;;;;;16.65;77.88867;94779.61;;;;
2020/07/26 03:20:01;;;;;;;4.25;3;;;;;;;16.65;77.88867;94779.61;;;;
2020/07/26 03:21:01;;;;;;;4.25;3;;;;;;;16.65;77.88867;94779.61;;;;
2020/07/26 03:22:02;;;;;;;4.25;3;;;;;;;16.65;77.88867;94779.61;;;;
2020/07/26 03:23:02;;;;;;;4.25;3;;;;;;;16.65;77.88867;94779.61;;;;
2020/07/26 03:24:03;;;;;;;4.25;3;;;;;;;16.65;77.88867;94779.61;;;;
2020/07/26 03:25:04;;;;;;;3.25;2.8;;;;;;;16.56;78.0127;94783.22;;;;
2020/07/26 03:26:04;;;;;;;3.25;2.8;;;;;;;16.56;78.0127;94783.22;;;;
2020/07/26 03:27:04;;;;;;;3.25;2.8;;;;;;;16.56;78.0127;94783.22;;;;
2020/07/26 03:28:05;;;;;;;3.25;2.8;;;;;;;16.56;78.0127;94783.22;;;;
2020/07/26 03:29:05;;;;;;;3.25;2.8;;;;;;;16.56;78.0127;94783.22;;;;
2020/07/26 03:30:06;;;;;;;3.25;2.8;;;;;;;16.56;78.0127;94783.22;;;;
2020/07/26 03:31:06;;;;;;;3.25;2.8;;;;;;;16.56;78.0127;94783.22;;;;
2020/07/26 03:32:07;;;;;;;3.25;2.8;;;;;;;16.56;78.0127;94783.22;;;;
2020/07/26 03:33:07;;;;;;;3.25;2.8;;;;;;;16.56;78.0127;94783.22;;;;
2020/07/26 03:34:08;;;;;;;3.25;2.8;;;;;;;16.56;78.0127;94783.22;;;;
2020/07/26 03:35:08;;;;;;;4.45;3.1;;;;;;;16.59;78.00684;94785.37;;;;
2020/07/26 03:36:09;;;;;;;4.45;3.1;;;;;;;16.59;78.00684;94785.37;;;;
2020/07/26 03:37:09;;;;;;;4.45;3.1;;;;;;;16.59;78.00684;94785.37;;;;
2020/07/26 03:38:10;;;;;;;4.45;3.1;;;;;;;16.59;78.00684;94785.37;;;;
2020/07/26 03:39:10;;;;;;;4.45;3.1;;;;;;;16.59;78.00684;94785.37;;;;
2020/07/26 03:40:11;;;;;;;4.45;3.1;;;;;;;16.59;78.00684;94785.37;;;;
2020/07/26 03:41:11;;;;;;;4.45;3.1;;;;;;;16.59;78.00684;94785.37;;;;
2020/07/26 03:42:13;;;;;;;4.45;3.1;;;;;;;16.59;78.00684;94785.37;;;;
2020/07/26 03:43:14;;;;;;;4.45;3.1;;;;;;;16.59;78.00684;94785.37;;;;
2020/07/26 03:44:14;;;;;;;4.45;3.1;;;;;;;16.59;78.00684;94785.37;;;;
2020/07/26 03:45:15;;;;;;;4.45;3.1;;;;;;;16.59;78.00684;94785.37;;;;
2020/07/26 03:46:15;;;;;;;3.6;2.7;;;;;;;16.75;77.8291;94787.69;;;;
2020/07/26 03:47:16;;;;;;;3.6;2.7;;;;;;;16.75;77.8291;94787.69;;;;
2020/07/26 03:48:16;;;;;;;3.6;2.7;;;;;;;16.75;77.8291;94787.69;;;;
2020/07/26 03:49:17;;;;;;;3.6;2.7;;;;;;;16.75;77.8291;94787.69;;;;
2020/07/26 03:50:17;;;;;;;3.6;2.7;;;;;;;16.75;77.8291;94787.69;;;;
2020/07/26 03:51:18;;;;;;;3.6;2.7;;;;;;;16.75;77.8291;94787.69;;;;
2020/07/26 03:52:18;;;;;;;3.6;2.7;;;;;;;16.75;77.8291;94787.69;;;;
2020/07/26 03:53:19;;;;;;;3.6;2.7;;;;;;;16.75;77.8291;94787.69;;;;
2020/07/26 03:54:19;;;;;;;3.6;2.7;;;;;;;16.75;77.8291;94787.69;;;;
2020/07/26 03:55:20;;;;;;;3.6;2.7;;;;;;;16.75;77.8291;94787.69;;;;
2020/07/26 03:56:20;;;;;;;2.7;2.5;;;;;;;16.84;77.62695;94780.67;;;;
2020/07/26 03:57:21;;;;;;;2.7;2.5;;;;;;;16.84;77.62695;94780.67;;;;
2020/07/26 03:58:21;;;;;;;2.7;2.5;;;;;;;16.84;77.62695;94780.67;;;;
2020/07/26 03:59:22;;;;;;;2.7;2.5;;;;;;;16.84;77.62695;94780.67;;;;
2020/07/26 04:00:22;;;;;;;2.7;2.5;;;;;;;16.84;77.62695;94780.67;;;;
2020/07/26 04:01:23;;;;;;;2.7;2.5;;;;;;;16.84;77.62695;94780.67;;;;
2020/07/26 04:02:24;;;;;;;2.7;2.5;;;;;;;16.84;77.62695;94780.67;;;;
2020/07/26 04:03:24;;;;;;;2.7;2.5;;;;;;;16.84;77.62695;94780.67;;;;
2020/07/26 04:04:25;;;;;;;2.7;2.5;;;;;;;16.84;77.62695;94780.67;;;;
2020/07/26 04:05:25;;;;;;;2.7;2.5;;;;;;;16.84;77.62695;94780.67;;;;
2020/07/26 04:06:26;;;;;;;2.7;2.5;;;;;;;16.84;77.62695;94780.67;;;;
2020/07/26 04:07:26;;;;;;;3.1;2.9;;;;;;;16.91;77.44531;94777.85;;;;
2020/07/26 04:08:27;;;;;;;3.1;2.9;;;;;;;16.91;77.44531;94777.85;;;;
2020/07/26 04:09:27;;;;;;;3.1;2.9;;;;;;;16.91;77.44531;94777.85;;;;
2020/07/26 04:10:28;;;;;;;3.1;2.9;;;;;;;16.91;77.44531;94777.85;;;;
2020/07/26 04:11:28;;;;;;;3.1;2.9;;;;;;;16.91;77.44531;94777.85;;;;
2020/07/26 04:12:29;;;;;;;3.1;2.9;;;;;;;16.91;77.44531;94777.85;;;;
2020/07/26 04:13:29;;;;;;;3.1;2.9;;;;;;;16.91;77.44531;94777.85;;;;
2020/07/26 04:14:30;;;;;;;3.1;2.9;;;;;;;16.91;77.44531;94777.85;;;;
2020/07/26 04:15:31;;;;;;;3.1;2.9;;;;;;;16.91;77.44531;94777.85;;;;
2020/07/26 04:16:31;;;;;;;3.1;2.9;;;;;;;16.91;77.44531;94777.85;;;;
2020/07/26 04:17:32;;;;;;;3.85;2.7;;;;;;;17.13;77.16992;94784.19;;;;
2020/07/26 04:18:32;;;;;;;3.85;2.7;;;;;;;17.13;77.16992;94784.19;;;;
2020/07/26 04:19:33;;;;;;;3.85;2.7;;;;;;;17.13;77.16992;94784.19;;;;
2020/07/26 04:20:33;;;;;;;3.85;2.7;;;;;;;17.13;77.16992;94784.19;;;;
2020/07/26 04:21:34;;;;;;;3.85;2.7;;;;;;;17.13;77.16992;94784.19;;;;
2020/07/26 04:22:34;;;;;;;3.85;2.7;;;;;;;17.13;77.16992;94784.19;;;;
2020/07/26 04:23:35;;;;;;;3.85;2.7;;;;;;;17.13;77.16992;94784.19;;;;
2020/07/26 04:24:35;;;;;;;3.85;2.7;;;;;;;17.13;77.16992;94784.19;;;;
2020/07/26 04:25:36;;;;;;;3.85;2.7;;;;;;;17.13;77.16992;94784.19;;;;
2020/07/26 04:26:36;;;;;;;3.85;2.7;;;;;;;17.13;77.16992;94784.19;;;;
2020/07/26 04:27:37;;;;;;;3.85;2.7;;;;;;;17.13;77.16992;94784.19;;;;
2020/07/26 04:28:37;;;;;;;3.3;2.7;;;;;;;17.28;76.77148;94795.9;;;;
2020/07/26 04:29:38;;;;;;;3.3;2.7;;;;;;;17.28;76.77148;94795.9;;;;
2020/07/26 04:30:38;;;;;;;3.3;2.7;;;;;;;17.28;76.77148;94795.9;;;;
2020/07/26 04:31:39;;;;;;;3.3;2.7;;;;;;;17.28;76.77148;94795.9;;;;
2020/07/26 04:32:39;;;;;;;3.3;2.7;;;;;;;17.28;76.77148;94795.9;;;;
2020/07/26 04:33:40;;;;;;;3.3;2.7;;;;;;;17.28;76.77148;94795.9;;;;
2020/07/26 04:34:40;;;;;;;3.3;2.7;;;;;;;17.28;76.77148;94795.9;;;;
2020/07/26 04:35:41;;;;;;;3.3;2.7;;;;;;;17.28;76.77148;94795.9;;;;
2020/07/26 04:36:41;;;;;;;3.3;2.7;;;;;;;17.28;76.77148;94795.9;;;;
2020/07/26 04:37:42;;;;;;;3.3;2.7;;;;;;;17.28;76.77148;94795.9;;;;
2020/07/26 04:38:42;;;;;;;3.25;2.5;;;;;;;17.49;76.54785;94798.56;;;;
2020/07/26 04:39:43;;;;;;;3.25;2.5;;;;;;;17.49;76.54785;94798.56;;;;
2020/07/26 04:40:43;;;;;;;3.25;2.5;;;;;;;17.49;76.54785;94798.56;;;;
2020/07/26 04:41:44;;;;;;;3.25;2.5;;;;;;;17.49;76.54785;94798.56;;;;
2020/07/26 04:42:44;;;;;;;3.25;2.5;;;;;;;17.49;76.54785;94798.56;;;;
2020/07/26 04:43:45;;;;;;;3.25;2.5;;;;;;;17.49;76.54785;94798.56;;;;
2020/07/26 04:44:45;;;;;;;3.25;2.5;;;;;;;17.49;76.54785;94798.56;;;;
2020/07/26 04:45:46;;;;;;;3.25;2.5;;;;;;;17.49;76.54785;94798.56;;;;
2020/07/26 04:46:46;;;;;;;3.25;2.5;;;;;;;17.49;76.54785;94798.56;;;;
2020/07/26 04:47:47;;;;;;;3.25;2.5;;;;;;;17.49;76.54785;94798.56;;;;
2020/07/26 04:48:48;;;;;;;3.25;2.5;;;;;;;17.49;76.54785;94798.56;;;;
2020/07/26 04:49:48;;;;;;;2.900001;2.7;;;;;;;17.66;76.03418;94791.69;;;;
2020/07/26 04:50:49;;;;;;;2.900001;2.7;;;;;;;17.66;76.03418;94791.69;;;;
2020/07/26 04:51:49;;;;;;;2.900001;2.7;;;;;;;17.66;76.03418;94791.69;;;;
2020/07/26 04:52:50;;;;;;;2.900001;2.7;;;;;;;17.66;76.03418;94791.69;;;;
2020/07/26 04:53:50;;;;;;;2.900001;2.7;;;;;;;17.66;76.03418;94791.69;;;;
2020/07/26 04:54:51;;;;;;;2.900001;2.7;;;;;;;17.66;76.03418;94791.69;;;;
2020/07/26 04:55:51;;;;;;;2.900001;2.7;;;;;;;17.66;76.03418;94791.69;;;;
2020/07/26 04:56:52;;;;;;;2.900001;2.7;;;;;;;17.66;76.03418;94791.69;;;;
2020/07/26 04:57:52;;;;;;;2.900001;2.7;;;;;;;17.66;76.03418;94791.69;;;;
2020/07/26 04:58:53;;;;;;;2.900001;2.7;;;;;;;17.66;76.03418;94791.69;;;;
2020/07/26 04:59:53;;;;;;;2.65;2.45;;;;;;;17.87;75.70996;94794.95;;;;
2020/07/26 05:00:54;;;;;;;2.65;2.45;;;;;;;17.87;75.70996;94794.95;;;;
2020/07/26 05:01:54;;;;;;;2.65;2.45;;;;;;;17.87;75.70996;94794.95;;;;
2020/07/26 05:02:55;;;;;;;2.65;2.45;;;;;;;17.87;75.70996;94794.95;;;;
2020/07/26 05:03:55;;;;;;;2.65;2.45;;;;;;;17.87;75.70996;94794.95;;;;
2020/07/26 05:04:56;;;;;;;2.65;2.45;;;;;;;17.87;75.70996;94794.95;;;;
2020/07/26 05:05:56;;;;;;;2.65;2.45;;;;;;;17.87;75.70996;94794.95;;;;
2020/07/26 05:06:57;;;;;;;2.65;2.45;;;;;;;17.87;75.70996;94794.95;;;;
2020/07/26 05:07:57;;;;;;;2.65;2.45;;;;;;;17.87;75.70996;94794.95;;;;
2020/07/26 05:08:58;;;;;;;2.65;2.45;;;;;;;17.87;75.70996;94794.95;;;;
2020/07/26 05:09:58;;;;;;;2.65;2.45;;;;;;;17.87;75.70996;94794.95;;;;
2020/07/26 05:10:59;;;;;;;2.65;2.45;;;;;;;17.87;75.70996;94794.95;;;;
2020/07/26 05:11:59;;;;;;;2.65;2.45;;;;;;;17.87;75.70996;94794.95;;;;
2020/07/26 05:13:00;;;;;;;2.65;2.45;;;;;;;17.87;75.70996;94794.95;;;;
2020/07/26 05:14:00;;;;;;;2.65;2.45;;;;;;;17.87;75.70996;94794.95;;;;
2020/07/26 05:15:01;;;;;;;2.65;2.45;;;;;;;17.87;75.70996;94794.95;;;;
2020/07/26 05:16:01;;;;;;;2.65;2.45;;;;;;;17.87;75.70996;94794.95;;;;
2020/07/26 05:17:02;;;;;;;2.65;2.45;;;;;;;17.87;75.70996;94794.95;;;;
2020/07/26 05:18:02;;;;;;;2.65;2.45;;;;;;;17.87;75.70996;94794.95;;;;
2020/07/26 05:19:03;;;;;;;2.65;2.45;;;;;;;17.87;75.70996;94794.95;;;;
2020/07/26 05:20:03;;;;;;;2.65;2.45;;;;;;;17.87;75.70996;94794.95;;;;
2020/07/26 05:21:04;;;;;;;2.65;2.45;;;;;;;17.87;75.70996;94794.95;;;;
2020/07/26 05:22:04;;;;;;;4.15;2.85;;;;;;;18.4;74.83301;94806.36;;;;
2020/07/26 05:23:05;;;;;;;4.15;2.85;;;;;;;18.4;74.83301;94806.36;;;;
2020/07/26 05:24:05;;;;;;;4.15;2.85;;;;;;;18.4;74.83301;94806.36;;;;
2020/07/26 05:25:06;;;;;;;4.15;2.85;;;;;;;18.4;74.83301;94806.36;;;;
2020/07/26 05:26:06;;;;;;;4.15;2.85;;;;;;;18.4;74.83301;94806.36;;;;
2020/07/26 05:27:07;;;;;;;4.15;2.85;;;;;;;18.4;74.83301;94806.36;;;;
2020/07/26 05:28:07;;;;;;;4.15;2.85;;;;;;;18.4;74.83301;94806.36;;;;
2020/07/26 05:29:08;;;;;;;4.15;2.85;;;;;;;18.4;74.83301;94806.36;;;;
2020/07/26 05:30:08;;;;;;;4.15;2.85;;;;;;;18.4;74.83301;94806.36;;;;
2020/07/26 05:31:09;;;;;;;4.15;2.85;;;;;;;18.4;74.83301;94806.36;;;;
2020/07/26 05:32:10;;;;;;;3.2;2.7;;;;;;;18.48;74.61621;94812.58;;;;
2020/07/26 05:33:10;;;;;;;3.2;2.7;;;;;;;18.48;74.61621;94812.58;;;;
2020/07/26 05:34:11;;;;;;;3.2;2.7;;;;;;;18.48;74.61621;94812.58;;;;
2020/07/26 05:35:11;;;;;;;3.2;2.7;;;;;;;18.48;74.61621;94812.58;;;;
2020/07/26 05:36:12;;;;;;;3.2;2.7;;;;;;;18.48;74.61621;94812.58;;;;
2020/07/26 05:37:12;;;;;;;3.2;2.7;;;;;;;18.48;74.61621;94812.58;;;;
2020/07/26 05:38:13;;;;;;;3.2;2.7;;;;;;;18.48;74.61621;94812.58;;;;
2020/07/26 05:39:13;;;;;;;3.2;2.7;;;;;;;18.48;74.61621;94812.58;;;;
2020/07/26 05:40:13;;;;;;;3.2;2.7;;;;;;;18.48;74.61621;94812.58;;;;
2020/07/26 05:41:14;;;;;;;3.2;2.7;;;;;;;18.48;74.61621;94812.58;;;;
2020/07/26 05:42:14;;;;;;;3.2;2.7;;;;;;;18.48;74.61621;94812.58;;;;
2020/07/26 05:43:15;;;;;;;3.400001;2.9;;;;;;;18.55;74.60547;94840.91;;;;
2020/07/26 05:44:15;;;;;;;3.400001;2.9;;;;;;;18.55;74.60547;94840.91;;;;